createdAt,value
2018-03-19T00:01:13.226Z,11.30
2018-03-19T00:03:42.571Z,20.30
2018-03-19T00:06:11.350Z,20.00
2018-03-19T00:08:40.342Z,7.60
2018-03-19T00:11:09.623Z,16.67
2018-03-19T00:13:40.075Z,15.07
2018-03-19T00:16:09.930Z,17.23
2018-03-19T00:18:39.808Z,11.97
2018-03-19T00:21:08.875Z,10.87
2018-03-19T00:23:38.075Z,13.90
2018-03-19T00:26:07.071Z,15.97
2018-03-19T00:28:36.303Z,14.10
2018-03-19T00:31:05.299Z,15.83
2018-03-19T00:33:34.394Z,14.90
2018-03-19T00:36:03.767Z,14.90
2018-03-19T00:38:33.022Z,12.77
2018-03-19T00:41:02.160Z,20.20
2018-03-19T00:43:31.387Z,10.27
2018-03-19T00:46:00.382Z,12.70
2018-03-19T00:48:29.559Z,13.90
2018-03-19T00:50:58.550Z,18.67
2018-03-19T00:53:27.751Z,14.23
2018-03-19T00:55:56.879Z,14.13
2018-03-19T00:58:26.078Z,14.23
2018-03-19T01:00:55.039Z,13.40
2018-03-19T01:03:24.199Z,12.47
2018-03-19T01:05:53.298Z,14.20
2018-03-19T01:08:22.227Z,12.10
2018-03-19T01:10:51.198Z,7.40
2018-03-19T01:13:21.166Z,12.53
2018-03-19T01:15:50.159Z,18.70
2018-03-19T01:18:19.205Z,26.23
2018-03-19T01:20:48.046Z,15.07
2018-03-19T01:23:18.579Z,16.80
2018-03-19T01:25:47.675Z,20.53
2018-03-19T01:28:16.770Z,15.07
2018-03-19T01:30:46.049Z,13.20
2018-03-19T01:33:15.143Z,16.97
2018-03-19T01:35:44.138Z,18.33
2018-03-19T01:38:13.239Z,12.87
2018-03-19T01:40:42.231Z,20.63
2018-03-19T01:43:11.543Z,15.13
2018-03-19T01:45:41.450Z,11.13
2018-03-19T01:48:10.443Z,13.83
2018-03-19T01:50:39.743Z,13.10
2018-03-19T01:53:08.773Z,11.40
2018-03-19T01:55:37.905Z,15.90
2018-03-19T01:58:06.863Z,15.00
2018-03-19T02:00:35.986Z,22.73
2018-03-19T02:03:04.899Z,12.37
2018-03-19T02:05:33.978Z,15.93
2018-03-19T02:08:03.827Z,11.93
2018-03-19T02:10:33.639Z,21.57
2018-03-19T02:13:02.525Z,24.03
2018-03-19T02:15:31.463Z,12.73
2018-03-19T02:18:00.591Z,19.00
2018-03-19T02:20:30.681Z,12.60
2018-03-19T02:23:00.355Z,15.27
2018-03-19T02:25:30.567Z,16.40
2018-03-19T02:28:00.055Z,21.83
2018-03-19T02:30:29.348Z,15.20
2018-03-19T02:33:00.829Z,19.67
2018-03-19T02:35:29.904Z,23.43
2018-03-19T02:37:58.832Z,17.90
2018-03-19T02:40:27.928Z,21.77
2018-03-19T02:42:57.904Z,24.83
2018-03-19T02:45:27.791Z,18.63
2018-03-19T02:47:56.791Z,18.53
2018-03-19T02:50:26.087Z,17.43
2018-03-19T02:52:54.834Z,13.93
2018-03-19T02:55:24.759Z,20.97
2018-03-19T02:57:53.987Z,15.57
2018-03-19T03:00:22.985Z,18.57
2018-03-19T03:02:52.778Z,15.93
2018-03-19T03:05:21.788Z,19.90
2018-03-19T03:07:52.051Z,22.80
2018-03-19T03:10:21.083Z,17.20
2018-03-19T03:12:50.240Z,15.57
2018-03-19T03:15:19.276Z,19.17
2018-03-19T03:17:48.374Z,15.23
2018-03-19T03:20:17.511Z,23.70
2018-03-19T03:22:46.712Z,22.97
2018-03-19T03:25:15.755Z,18.00
2018-03-19T03:27:44.911Z,20.53
2018-03-19T03:30:13.839Z,21.20
2018-03-19T03:32:42.924Z,22.07
2018-03-19T03:35:12.899Z,17.30
2018-03-19T03:37:42.614Z,17.60
2018-03-19T03:40:11.724Z,20.67
2018-03-19T03:42:41.142Z,17.73
2018-03-19T03:45:10.515Z,19.17
2018-03-19T03:47:40.186Z,22.53
2018-03-19T03:50:09.066Z,19.53
2018-03-19T03:52:38.222Z,15.47
2018-03-19T03:55:07.351Z,18.70
2018-03-19T03:57:36.316Z,18.90
2018-03-19T04:00:05.260Z,31.13
2018-03-19T04:02:34.407Z,18.37
2018-03-19T04:05:03.503Z,19.23
2018-03-19T04:07:32.550Z,20.73
2018-03-19T04:10:01.498Z,15.67
2018-03-19T04:12:30.619Z,18.40
2018-03-19T04:15:01.147Z,22.20
2018-03-19T04:17:30.242Z,20.13
2018-03-19T04:20:00.481Z,15.27
2018-03-19T04:22:29.427Z,18.23
2018-03-19T04:24:58.526Z,17.47
2018-03-19T04:27:28.302Z,25.07
2018-03-19T04:29:57.143Z,33.03
2018-03-19T04:32:26.371Z,15.63
2018-03-19T04:34:55.663Z,19.43
2018-03-19T04:37:24.899Z,23.83
2018-03-19T04:39:53.922Z,25.97
2018-03-19T04:42:23.623Z,24.00
2018-03-19T04:44:52.732Z,18.70
2018-03-19T04:47:21.992Z,19.60
2018-03-19T04:49:51.934Z,29.30
2018-03-19T04:52:20.918Z,22.97
2018-03-19T04:54:50.014Z,28.53
2018-03-19T04:57:19.151Z,26.67
2018-03-19T04:59:48.144Z,14.53
2018-03-19T05:02:17.081Z,20.50
2018-03-19T05:04:46.376Z,19.83
2018-03-19T05:07:15.428Z,20.53
2018-03-19T05:09:45.519Z,34.73
2018-03-19T05:12:14.773Z,24.10
2018-03-19T05:14:43.573Z,21.50
2018-03-19T05:17:12.763Z,22.87
2018-03-19T05:19:41.952Z,19.23
2018-03-19T05:22:10.937Z,19.37
2018-03-19T05:24:41.933Z,18.17
2018-03-19T05:27:11.230Z,21.00
2018-03-19T05:29:40.403Z,27.57
2018-03-19T05:32:09.653Z,16.13
2018-03-19T05:34:38.769Z,28.23
2018-03-19T05:37:07.967Z,27.90
2018-03-19T05:39:37.143Z,19.90
2018-03-19T05:42:07.143Z,21.80
2018-03-19T05:44:37.012Z,24.13
2018-03-19T05:47:07.194Z,32.77
2018-03-19T05:49:36.214Z,15.53
2018-03-19T05:52:05.287Z,19.57
2018-03-19T05:54:34.727Z,24.33
2018-03-19T05:57:03.619Z,26.20
2018-03-19T05:59:32.683Z,26.00
2018-03-19T06:02:01.805Z,14.70
2018-03-19T06:04:30.803Z,22.20
2018-03-19T06:06:59.695Z,24.93
2018-03-19T06:09:28.795Z,26.70
2018-03-19T06:11:57.892Z,24.60
2018-03-19T06:14:26.883Z,20.20
2018-03-19T06:16:55.911Z,22.67
2018-03-19T06:19:24.875Z,27.10
2018-03-19T06:21:53.939Z,23.10
2018-03-19T06:24:23.072Z,21.07
2018-03-19T06:26:52.063Z,17.93
2018-03-19T06:29:20.923Z,21.47
2018-03-19T06:31:50.119Z,21.50
2018-03-19T06:34:19.071Z,16.80
2018-03-19T06:36:49.196Z,17.07
2018-03-19T06:39:18.331Z,20.33
2018-03-19T06:41:47.535Z,24.10
2018-03-19T06:44:16.731Z,20.00
2018-03-19T06:46:45.726Z,13.00
2018-03-19T06:49:15.063Z,19.93
2018-03-19T06:51:44.023Z,22.90
2018-03-19T06:54:14.066Z,25.50
2018-03-19T06:56:43.610Z,17.37
2018-03-19T06:59:12.576Z,25.47
2018-03-19T07:01:41.566Z,30.90
2018-03-19T07:04:10.567Z,27.93
2018-03-19T07:06:40.335Z,21.70
2018-03-19T07:09:09.500Z,19.90
2018-03-19T07:11:38.947Z,17.50
2018-03-19T07:14:07.971Z,18.47
2018-03-19T07:16:37.342Z,19.97
2018-03-19T07:19:07.095Z,21.60
2018-03-19T07:21:36.086Z,22.20
2018-03-19T07:24:06.199Z,21.87
2018-03-19T07:26:35.371Z,18.30
2018-03-19T07:29:04.602Z,28.23
2018-03-19T07:31:34.487Z,20.63
2018-03-19T07:34:03.359Z,20.83
2018-03-19T07:36:33.323Z,17.73
2018-03-19T07:39:02.314Z,20.50
2018-03-19T07:41:32.294Z,15.90
2018-03-19T07:44:01.640Z,22.13
2018-03-19T07:46:31.559Z,17.20
2018-03-19T07:49:00.709Z,19.10
2018-03-19T07:51:29.724Z,22.37
2018-03-19T07:53:58.888Z,22.60
2018-03-19T07:56:28.207Z,34.53
2018-03-19T07:58:57.405Z,16.57
2018-03-19T08:01:28.038Z,15.77
2018-03-19T08:03:57.944Z,19.53
2018-03-19T08:06:26.894Z,19.77
2018-03-19T08:08:55.890Z,23.90
2018-03-19T08:11:25.019Z,18.07
2018-03-19T08:13:54.795Z,26.63
2018-03-19T08:16:23.863Z,20.83
2018-03-19T08:18:52.992Z,16.60
2018-03-19T08:21:22.979Z,19.87
2018-03-19T08:23:51.976Z,20.63
2018-03-19T08:26:20.931Z,18.03
2018-03-19T08:28:50.020Z,18.83
2018-03-19T08:31:20.382Z,13.53
2018-03-19T08:33:50.001Z,21.97
2018-03-19T08:36:19.295Z,17.30
2018-03-19T08:38:48.462Z,22.43
2018-03-19T08:41:17.801Z,9.47
2018-03-19T08:43:46.827Z,23.80
2018-03-19T08:46:15.999Z,20.17
2018-03-19T08:48:46.529Z,23.27
2018-03-19T08:51:15.760Z,17.13
2018-03-19T08:53:44.823Z,18.93
2018-03-19T08:56:13.950Z,15.23
2018-03-19T08:58:43.691Z,19.57
2018-03-19T09:01:12.827Z,21.27
2018-03-19T09:03:42.607Z,12.97
2018-03-19T09:06:12.456Z,19.30
2018-03-19T09:08:41.683Z,21.83
2018-03-19T09:11:11.352Z,24.00
2018-03-19T09:13:40.363Z,21.00
2018-03-19T09:16:09.295Z,15.77
2018-03-19T09:18:38.255Z,14.23
2018-03-19T09:21:08.270Z,18.80
2018-03-19T09:23:37.391Z,25.60
2018-03-19T09:26:07.067Z,10.77
2018-03-19T09:28:37.146Z,23.33
2018-03-19T09:31:06.574Z,17.33
2018-03-19T09:33:35.731Z,16.83
2018-03-19T09:36:04.775Z,24.70
2018-03-19T09:38:34.917Z,28.13
2018-03-19T09:41:03.911Z,12.70
2018-03-19T09:43:33.111Z,22.53
2018-03-19T09:46:02.114Z,18.77
2018-03-19T09:48:33.515Z,16.90
2018-03-19T09:51:02.611Z,20.90
2018-03-19T09:53:31.749Z,22.43
2018-03-19T09:56:01.083Z,14.17
2018-03-19T09:58:30.216Z,16.73
2018-03-19T10:00:59.455Z,22.97
2018-03-19T10:03:28.560Z,22.53
2018-03-19T10:05:57.542Z,21.40
2018-03-19T10:08:26.545Z,14.43
2018-03-19T10:10:56.647Z,16.83
2018-03-19T10:13:25.948Z,22.93
2018-03-19T10:15:55.394Z,18.70
2018-03-19T10:18:24.487Z,21.33
2018-03-19T10:20:53.763Z,14.10
2018-03-19T10:23:22.766Z,14.10
2018-03-19T10:25:52.875Z,17.97
2018-03-19T10:28:22.222Z,22.97
2018-03-19T10:30:51.235Z,24.60
2018-03-19T10:33:21.581Z,22.93
2018-03-19T10:35:50.631Z,17.13
2018-03-19T10:38:19.781Z,13.77
2018-03-19T10:40:49.058Z,19.57
2018-03-19T10:43:18.153Z,18.33
2018-03-19T10:45:47.298Z,14.10
2018-03-19T10:48:16.695Z,17.70
2018-03-19T10:50:46.382Z,18.03
2018-03-19T10:53:16.248Z,12.57
2018-03-19T10:55:45.450Z,22.30
2018-03-19T10:58:14.622Z,14.77
2018-03-19T11:00:44.815Z,22.43
2018-03-19T11:03:20.040Z,16.70
2018-03-19T11:06:06.062Z,12.03
2018-03-19T11:08:36.259Z,18.60
2018-03-19T11:11:05.626Z,13.13
2018-03-19T11:13:34.799Z,27.63
2018-03-19T11:16:03.994Z,11.77
2018-03-19T11:18:33.128Z,16.03
2018-03-19T11:21:02.299Z,17.73
2018-03-19T11:23:31.499Z,18.87
2018-03-19T11:26:00.671Z,19.20
2018-03-19T11:28:30.586Z,17.80
2018-03-19T11:30:59.622Z,16.67
2018-03-19T11:33:29.119Z,18.97
2018-03-19T11:35:59.130Z,15.53
2018-03-19T11:38:28.779Z,20.67
2018-03-19T11:40:58.048Z,21.93
2018-03-19T11:43:27.171Z,21.60
2018-03-19T11:45:56.180Z,15.23
2018-03-19T11:48:25.367Z,19.00
2018-03-19T11:50:54.530Z,14.33
2018-03-19T11:53:23.411Z,27.47
2018-03-19T11:55:52.488Z,18.13
2018-03-19T11:58:22.331Z,18.20
2018-03-19T12:00:51.735Z,14.90
2018-03-19T12:03:20.735Z,15.60
2018-03-19T12:05:49.835Z,18.47
2018-03-19T12:08:18.826Z,22.03
2018-03-19T12:10:47.923Z,12.93
2018-03-19T12:13:16.919Z,18.33
2018-03-19T12:15:46.016Z,15.80
2018-03-19T12:18:15.016Z,15.27
2018-03-19T12:20:44.239Z,15.50
2018-03-19T12:23:13.372Z,19.60
2018-03-19T12:25:43.215Z,17.30
2018-03-19T12:28:12.419Z,18.67
2018-03-19T12:30:42.423Z,19.73
2018-03-19T12:33:12.495Z,20.60
2018-03-19T12:35:41.383Z,16.60
2018-03-19T12:38:10.496Z,18.17
2018-03-19T12:40:39.443Z,14.37
2018-03-19T12:43:08.703Z,19.27
2018-03-19T12:45:37.671Z,15.37
2018-03-19T12:48:10.299Z,17.03
2018-03-19T12:50:39.576Z,19.13
2018-03-19T12:53:09.526Z,17.40
2018-03-19T12:55:38.542Z,21.00
2018-03-19T12:58:07.513Z,12.30
2018-03-19T13:00:36.475Z,16.03
2018-03-19T13:03:05.987Z,24.93
2018-03-19T13:05:34.799Z,15.20
2018-03-19T13:08:03.747Z,17.20
2018-03-19T13:10:32.871Z,18.97
2018-03-19T13:13:02.776Z,13.20
2018-03-19T13:15:31.870Z,18.90
2018-03-19T13:18:01.182Z,13.70
2018-03-19T13:20:30.238Z,17.40
2018-03-19T13:22:59.416Z,15.90
2018-03-19T13:25:28.664Z,18.00
2018-03-19T13:27:57.544Z,19.20
2018-03-19T13:33:01.335Z,18.00
2018-03-19T13:35:30.328Z,17.43
2018-03-19T13:38:02.325Z,14.70
2018-03-19T13:40:31.866Z,22.97
2018-03-19T13:43:07.201Z,15.20
2018-03-19T13:45:36.742Z,16.53
2018-03-19T13:48:05.876Z,16.03
2018-03-19T13:50:35.385Z,18.53
2018-03-19T13:53:04.342Z,18.63
2018-03-19T13:55:33.339Z,12.27
2018-03-19T13:58:02.440Z,14.63
2018-03-19T14:00:31.531Z,21.70
2018-03-19T14:03:00.695Z,13.50
2018-03-19T14:05:30.542Z,16.60
2018-03-19T14:08:00.327Z,18.23
2018-03-19T14:10:30.102Z,20.30
2018-03-19T14:12:59.299Z,16.23
2018-03-19T14:15:28.401Z,17.17
2018-03-19T14:17:57.687Z,14.83
2018-03-19T14:20:26.904Z,11.73
2018-03-19T14:22:55.794Z,23.83
2018-03-19T14:25:25.162Z,13.33
2018-03-19T14:27:54.072Z,11.90
2018-03-19T14:30:23.259Z,15.87
2018-03-19T14:32:52.441Z,17.70
2018-03-19T14:35:21.538Z,17.20
2018-03-19T14:37:50.855Z,14.37
2018-03-19T14:40:20.051Z,14.07
2018-03-19T14:42:52.146Z,12.50
2018-03-19T14:45:21.334Z,14.00
2018-03-19T14:47:50.310Z,13.87
2018-03-19T14:50:19.207Z,12.40
2018-03-19T14:52:48.460Z,17.87
2018-03-19T14:55:17.502Z,20.63
2018-03-19T14:57:46.639Z,17.03
2018-03-19T15:00:15.632Z,14.60
2018-03-19T15:02:44.627Z,11.73
2018-03-19T15:05:14.074Z,16.20
2018-03-19T15:07:43.807Z,15.90
2018-03-19T15:10:12.908Z,16.70
2018-03-19T15:12:42.238Z,11.73
2018-03-19T15:15:11.236Z,16.43
2018-03-19T15:17:40.295Z,21.60
2018-03-19T15:20:09.459Z,14.43
2018-03-19T15:22:38.423Z,19.90
2018-03-19T15:25:07.382Z,23.40
2018-03-19T15:27:36.719Z,21.13
2018-03-19T15:30:05.951Z,18.27
2018-03-19T15:32:44.128Z,12.63
2018-03-19T15:35:15.340Z,17.53
2018-03-19T15:37:44.332Z,24.83
2018-03-19T15:40:13.431Z,17.83
2018-03-19T15:42:42.635Z,13.27
2018-03-19T15:45:11.630Z,22.53
2018-03-19T15:47:40.722Z,14.57
2018-03-19T15:50:09.927Z,12.43
2018-03-19T15:52:39.027Z,23.30
2018-03-19T15:55:09.068Z,17.50
2018-03-19T15:57:38.371Z,14.50
2018-03-19T16:00:07.359Z,16.87
2018-03-19T16:02:36.643Z,19.70
2018-03-19T16:05:06.538Z,16.00
2018-03-19T16:07:35.851Z,23.33
2018-03-19T16:10:04.947Z,15.97
2018-03-19T16:12:34.075Z,10.13
2018-03-19T16:15:04.576Z,13.77
2018-03-19T16:17:35.455Z,15.03
2018-03-19T16:20:04.723Z,21.93
2018-03-19T16:22:33.711Z,20.93
2018-03-19T16:25:02.942Z,15.97
2018-03-19T16:27:32.099Z,15.33
2018-03-19T16:30:00.938Z,15.47
2018-03-19T16:32:30.036Z,23.10
2018-03-19T16:34:59.417Z,19.07
2018-03-19T16:37:29.424Z,15.67
2018-03-19T16:39:58.453Z,16.43
2018-03-19T16:42:27.412Z,17.50
2018-03-19T16:44:56.643Z,18.97
2018-03-19T16:47:25.535Z,29.80
2018-03-19T16:49:54.603Z,16.67
2018-03-19T16:52:24.715Z,23.60
2018-03-19T16:54:53.843Z,24.17
2018-03-19T16:57:24.024Z,13.50
2018-03-19T16:59:53.194Z,25.00
2018-03-19T17:02:22.366Z,21.47
2018-03-19T17:04:51.464Z,26.83
2018-03-19T17:07:20.839Z,29.97
2018-03-19T17:09:49.962Z,19.27
2018-03-19T17:12:19.038Z,19.87
2018-03-19T17:14:48.159Z,16.63
2018-03-19T17:17:17.391Z,27.67
2018-03-19T17:19:46.311Z,20.30
2018-03-19T17:22:15.423Z,16.80
2018-03-19T17:24:44.555Z,20.70
2018-03-19T17:27:13.804Z,21.63
2018-03-19T17:29:42.871Z,14.83
2018-03-19T17:32:12.242Z,17.57
2018-03-19T17:34:42.983Z,20.27
2018-03-19T17:37:12.159Z,19.67
2018-03-19T17:39:41.150Z,15.67
2018-03-19T17:42:11.223Z,17.70
2018-03-19T17:44:40.361Z,22.37
2018-03-19T17:47:09.184Z,26.63
2018-03-19T17:49:38.483Z,26.27
2018-03-19T17:52:07.579Z,15.17
2018-03-19T17:54:36.763Z,25.93
2018-03-19T17:57:05.846Z,21.60
2018-03-19T17:59:34.915Z,25.40
2018-03-19T18:02:04.959Z,23.97
2018-03-19T18:04:34.064Z,17.43
2018-03-19T18:07:03.271Z,24.70
2018-03-19T18:09:32.255Z,23.27
2018-03-19T18:12:01.452Z,22.40
2018-03-19T18:14:30.651Z,15.90
2018-03-19T18:16:59.648Z,22.70
2018-03-19T18:19:29.559Z,20.10
2018-03-19T18:21:58.796Z,20.77
2018-03-19T18:24:28.103Z,23.70
2018-03-19T18:26:57.062Z,17.60
2018-03-19T18:29:27.416Z,22.27
2018-03-19T18:31:56.488Z,17.73
2018-03-19T18:34:25.490Z,19.13
2018-03-19T18:36:54.779Z,39.07
2018-03-19T18:39:23.567Z,15.13
2018-03-19T18:41:52.875Z,17.30
2018-03-19T18:44:22.928Z,18.80
2018-03-19T18:46:52.111Z,19.00
2018-03-19T18:49:21.831Z,21.13
2018-03-19T18:51:50.959Z,21.63
2018-03-19T18:54:20.050Z,30.13
2018-03-19T18:56:49.160Z,28.70
2018-03-19T18:59:18.189Z,18.70
2018-03-19T19:01:47.323Z,21.67
2018-03-19T19:04:16.748Z,32.80
2018-03-19T19:06:46.534Z,37.43
2018-03-19T19:09:15.663Z,30.77
2018-03-19T19:11:44.622Z,22.10
2018-03-19T19:14:13.620Z,30.40
2018-03-19T19:16:42.822Z,22.93
2018-03-19T19:19:11.968Z,29.90
2018-03-19T19:21:41.043Z,25.23
2018-03-19T19:24:10.073Z,23.97
2018-03-19T19:26:38.998Z,32.10
2018-03-19T19:29:08.000Z,31.97
2018-03-19T19:31:37.123Z,36.67
2018-03-19T19:34:06.033Z,31.77
2018-03-19T19:36:35.056Z,34.40
2018-03-19T19:39:04.462Z,38.33
2018-03-19T19:41:34.299Z,41.73
2018-03-19T19:44:03.672Z,37.77
2018-03-19T19:46:32.771Z,32.97
2018-03-19T19:49:01.796Z,52.33
2018-03-19T19:51:30.923Z,47.97
2018-03-19T19:53:59.605Z,39.27
2018-03-19T19:56:28.642Z,48.23
2018-03-19T19:58:57.776Z,34.93
2018-03-19T20:01:27.142Z,43.07
2018-03-19T20:03:56.130Z,42.70
2018-03-19T20:06:25.023Z,33.17
2018-03-19T20:08:54.012Z,50.83
2018-03-19T20:11:23.167Z,42.57
2018-03-19T20:13:52.127Z,38.50
2018-03-19T20:16:21.859Z,47.80
2018-03-19T20:18:51.132Z,42.27
2018-03-19T20:21:21.030Z,45.03
2018-03-19T20:23:50.343Z,39.83
2018-03-19T20:26:19.338Z,38.67
2018-03-19T20:28:48.542Z,38.73
2018-03-19T20:31:18.544Z,30.03
2018-03-19T20:33:47.715Z,37.80
2018-03-19T20:36:16.988Z,27.13
2018-03-19T20:38:46.265Z,39.80
2018-03-19T20:41:16.928Z,33.63
2018-03-19T20:43:46.059Z,34.13
2018-03-19T20:46:15.151Z,31.90
2018-03-19T20:48:44.011Z,30.67
2018-03-19T20:51:13.238Z,24.77
2018-03-19T20:53:42.146Z,31.00
2018-03-19T20:56:12.016Z,25.33
2018-03-19T20:58:41.006Z,26.57
2018-03-19T21:01:10.318Z,27.17
2018-03-19T21:03:39.379Z,24.53
2018-03-19T21:06:08.375Z,38.00
2018-03-19T21:08:38.391Z,34.40
2018-03-19T21:11:07.487Z,44.23
2018-03-19T21:13:36.583Z,26.47
2018-03-19T21:16:05.907Z,37.57
2018-03-19T21:18:34.806Z,30.53
2018-03-19T21:21:03.879Z,29.47
2018-03-19T21:23:33.219Z,31.20
2018-03-19T21:26:02.211Z,21.50
2018-03-19T21:28:31.202Z,31.70
2018-03-19T21:31:00.399Z,23.90
2018-03-19T21:33:29.300Z,22.23
2018-03-19T21:35:58.354Z,28.20
2018-03-19T21:38:27.554Z,25.83
2018-03-19T21:40:56.556Z,36.07
2018-03-19T21:43:26.721Z,24.10
2018-03-19T21:45:59.815Z,43.80
2018-03-19T21:48:30.660Z,31.30
2018-03-19T21:50:59.926Z,31.73
2018-03-19T21:53:28.998Z,33.60
2018-03-19T21:55:58.201Z,39.10
2018-03-19T21:58:27.295Z,29.53
2018-03-19T22:00:56.287Z,30.70
2018-03-19T22:03:25.414Z,31.43
2018-03-19T22:05:55.431Z,32.80
2018-03-19T22:08:24.531Z,30.10
2018-03-19T22:10:53.523Z,31.53
2018-03-19T22:13:23.007Z,39.70
2018-03-19T22:15:51.995Z,31.00
2018-03-19T22:18:21.030Z,41.73
2018-03-19T22:20:50.019Z,35.60
2018-03-19T22:23:19.390Z,30.57
2018-03-19T22:25:48.314Z,38.07
2018-03-19T22:28:17.313Z,36.27
2018-03-19T22:30:46.341Z,27.53
2018-03-19T22:33:16.187Z,24.33
2018-03-19T22:35:45.278Z,36.20
2018-03-19T22:38:15.102Z,30.10
2018-03-19T22:40:45.015Z,20.70
2018-03-19T22:43:14.365Z,45.40
2018-03-19T22:45:43.343Z,37.23
2018-03-19T22:48:13.875Z,37.10
2018-03-19T22:50:42.866Z,25.20
2018-03-19T22:53:12.750Z,32.97
2018-03-19T22:55:42.260Z,32.87
2018-03-19T22:58:11.255Z,37.77
2018-03-19T23:00:40.284Z,35.60
2018-03-19T23:03:09.449Z,42.90
2018-03-19T23:05:38.474Z,36.53
2018-03-19T23:08:07.603Z,32.53
2018-03-19T23:10:36.616Z,34.47
2018-03-19T23:13:05.763Z,27.80
2018-03-19T23:15:36.322Z,30.20
2018-03-19T23:18:05.287Z,26.63
2018-03-19T23:20:34.418Z,32.60
2018-03-19T23:23:03.382Z,26.00
2018-03-19T23:25:32.378Z,31.47
2018-03-19T23:28:01.502Z,38.53
2018-03-19T23:30:30.430Z,37.27
2018-03-19T23:32:59.500Z,25.27
2018-03-19T23:35:28.554Z,26.50
2018-03-19T23:37:57.499Z,31.53
2018-03-19T23:40:27.367Z,26.53
2018-03-19T23:42:56.326Z,23.27
2018-03-19T23:45:25.351Z,31.93
2018-03-19T23:47:54.319Z,28.03
2018-03-19T23:50:23.519Z,33.43
2018-03-19T23:52:52.851Z,33.77
2018-03-19T23:55:21.706Z,43.93
2018-03-19T23:57:50.710Z,37.37
